createdAt,value
2022-08-17T00:01:06.454Z,20.50
2022-08-17T00:05:10.254Z,20.50
2022-08-17T00:09:11.874Z,20.60
2022-08-17T00:13:25.868Z,20.60
2022-08-17T00:17:27.841Z,20.70
2022-08-17T00:21:56.399Z,20.70
2022-08-17T00:25:51.117Z,20.60
2022-08-17T00:29:52.723Z,20.60
2022-08-17T00:33:54.361Z,20.50
2022-08-17T00:37:56.045Z,20.50
2022-08-17T00:41:57.656Z,20.60
2022-08-17T00:46:04.967Z,20.60
2022-08-17T00:50:08.945Z,20.60
2022-08-17T00:54:31.183Z,20.50
2022-08-17T00:58:35.785Z,20.40
2022-08-17T01:02:42.942Z,20.00
2022-08-17T01:06:46.871Z,20.00
2022-08-17T01:10:58.921Z,20.00
2022-08-17T01:15:04.156Z,19.90
2022-08-17T01:19:09.138Z,19.90
2022-08-17T01:23:12.518Z,20.00
2022-08-17T01:27:24.088Z,20.10
2022-08-17T01:31:28.693Z,20.10
2022-08-17T01:35:30.356Z,20.10
2022-08-17T01:39:37.106Z,20.20
2022-08-17T01:43:50.043Z,20.20
2022-08-17T01:47:51.651Z,20.20
2022-08-17T01:51:53.318Z,20.30
2022-08-17T01:55:57.187Z,20.40
2022-08-17T01:59:59.694Z,20.30
2022-08-17T02:04:02.080Z,20.10
2022-08-17T02:08:04.143Z,20.00
2022-08-17T02:12:39.206Z,20.10
2022-08-17T02:16:29.449Z,20.10
2022-08-17T02:20:42.624Z,20.10
2022-08-17T02:25:00.749Z,20.30
2022-08-17T02:29:04.183Z,20.40
2022-08-17T02:33:09.263Z,20.40
2022-08-17T02:37:11.234Z,20.40
2022-08-17T02:41:13.232Z,20.40
2022-08-17T02:45:20.425Z,20.50
2022-08-17T02:49:22.041Z,20.60
2022-08-17T02:53:23.615Z,20.80
2022-08-17T02:57:27.279Z,20.90
2022-08-17T03:01:29.012Z,20.80
2022-08-17T03:05:32.103Z,20.60
2022-08-17T03:09:33.850Z,20.60
2022-08-17T03:13:35.467Z,20.40
2022-08-17T03:17:37.193Z,20.30
2022-08-17T03:21:38.877Z,20.40
2022-08-17T03:25:42.756Z,20.50
2022-08-17T03:29:45.860Z,20.50
2022-08-17T03:33:47.741Z,20.70
2022-08-17T03:37:52.450Z,20.60
2022-08-17T03:42:09.963Z,20.50
2022-08-17T03:46:50.290Z,20.50
2022-08-17T03:51:14.537Z,20.50
2022-08-17T03:55:36.347Z,20.70
2022-08-17T03:59:38.878Z,20.80
2022-08-17T04:03:40.706Z,20.80
2022-08-17T04:07:42.345Z,20.90
2022-08-17T04:11:44.282Z,20.90
2022-08-17T04:15:49.027Z,21.00
2022-08-17T04:19:50.772Z,21.00
2022-08-17T04:23:52.486Z,21.00
2022-08-17T04:27:54.432Z,20.90
2022-08-17T04:31:56.151Z,21.00
2022-08-17T04:36:03.033Z,21.10
2022-08-17T04:40:26.481Z,21.10
2022-08-17T04:44:37.619Z,21.10
2022-08-17T04:48:42.599Z,21.10
2022-08-17T04:52:47.365Z,21.00
2022-08-17T04:56:49.054Z,21.00
2022-08-17T05:00:50.965Z,21.10
2022-08-17T05:04:52.659Z,21.10
2022-08-17T05:08:57.811Z,21.10
2022-08-17T05:13:04.314Z,21.20
2022-08-17T05:17:07.227Z,21.30
2022-08-17T05:21:12.543Z,21.30
2022-08-17T05:25:14.545Z,21.30
2022-08-17T05:29:16.830Z,21.30
2022-08-17T05:33:19.818Z,21.40
2022-08-17T05:37:24.373Z,21.50
2022-08-17T05:41:26.028Z,21.40
2022-08-17T05:45:54.324Z,21.10
2022-08-17T05:49:49.566Z,21.10
2022-08-17T05:53:51.253Z,21.20
2022-08-17T05:58:13.124Z,21.20
2022-08-17T06:02:17.721Z,21.30
2022-08-17T06:06:32.502Z,21.10
2022-08-17T06:10:54.557Z,21.10
2022-08-17T06:14:58.921Z,21.40
2022-08-17T06:19:02.529Z,21.60
2022-08-17T06:23:05.910Z,21.60
2022-08-17T06:27:19.775Z,21.60
2022-08-17T06:31:29.344Z,21.60
2022-08-17T06:35:46.429Z,21.80
2022-08-17T06:39:54.300Z,21.80
2022-08-17T06:44:49.783Z,21.90
2022-08-17T06:48:47.214Z,21.90
2022-08-17T06:53:03.451Z,21.90
2022-08-17T06:57:14.821Z,21.80
2022-08-17T07:01:33.411Z,21.80
2022-08-17T07:05:50.402Z,22.00
2022-08-17T07:09:54.457Z,22.00
2022-08-17T07:13:57.072Z,22.00
2022-08-17T07:18:03.756Z,22.10
2022-08-17T07:22:23.875Z,21.90
2022-08-17T07:26:25.595Z,22.00
2022-08-17T07:30:28.792Z,21.50
2022-08-17T07:34:30.485Z,21.70
2022-08-17T07:38:33.235Z,21.80
2022-08-17T07:42:35.009Z,21.70
2022-08-17T07:47:05.409Z,21.50
2022-08-17T07:51:22.597Z,21.30
2022-08-17T07:55:31.745Z,21.40
2022-08-17T07:59:34.833Z,21.20
2022-08-17T08:03:44.218Z,21.30
2022-08-17T08:07:51.424Z,21.30
2022-08-17T08:11:53.277Z,21.40
2022-08-17T08:16:15.327Z,21.10
2022-08-17T08:20:50.898Z,20.70
2022-08-17T08:24:55.398Z,20.60
2022-08-17T08:29:18.183Z,20.90
2022-08-17T08:33:36.929Z,21.10
2022-08-17T08:37:43.169Z,21.00
2022-08-17T08:41:50.840Z,21.10
2022-08-17T08:46:25.027Z,21.30
2022-08-17T08:50:38.757Z,21.10
2022-08-17T08:54:46.601Z,20.80
2022-08-17T08:58:53.953Z,20.40
2022-08-17T09:03:14.340Z,20.60
2022-08-17T09:07:27.326Z,20.50
2022-08-17T09:12:01.364Z,19.90
2022-08-17T09:16:08.939Z,20.00
2022-08-17T09:20:27.614Z,20.00
2022-08-17T09:24:33.261Z,19.60
2022-08-17T09:28:36.882Z,19.70
2022-08-17T09:32:55.461Z,19.80
2022-08-17T09:37:11.096Z,19.60
2022-08-17T09:41:26.029Z,19.90
2022-08-17T09:45:31.009Z,20.00
2022-08-17T09:49:40.277Z,20.30
2022-08-17T09:53:44.571Z,20.20
2022-08-17T09:57:46.828Z,20.30
2022-08-17T10:01:55.304Z,20.60
2022-08-17T10:06:13.225Z,20.60
2022-08-17T10:10:18.005Z,20.60
2022-08-17T10:14:43.564Z,20.70
2022-08-17T10:18:49.248Z,20.50
2022-08-17T10:23:13.012Z,20.70
2022-08-17T10:27:16.574Z,20.50
2022-08-17T10:31:36.437Z,20.70
2022-08-17T10:35:52.066Z,21.10
2022-08-17T10:40:19.145Z,20.90
2022-08-17T10:44:46.908Z,21.00
2022-08-17T10:49:10.623Z,21.20
2022-08-17T10:53:32.478Z,21.50
2022-08-17T10:57:34.160Z,21.50
2022-08-17T11:01:37.847Z,21.50
2022-08-17T11:05:47.761Z,21.60
2022-08-17T11:09:49.335Z,21.50
2022-08-17T11:14:11.026Z,21.60
2022-08-17T11:18:18.839Z,21.50
2022-08-17T11:22:39.369Z,21.50
2022-08-17T11:26:46.883Z,21.60
2022-08-17T11:30:51.544Z,21.10
2022-08-17T11:35:05.158Z,21.30
2022-08-17T11:39:15.886Z,21.00
2022-08-17T11:43:40.908Z,21.20
2022-08-17T11:52:47.975Z,21.20
2022-08-17T11:56:50.669Z,21.40
2022-08-17T12:00:56.479Z,21.80
2022-08-17T12:05:23.707Z,22.20
2022-08-17T12:09:30.367Z,21.60
2022-08-17T12:13:39.358Z,21.70
2022-08-17T12:17:43.630Z,22.30
2022-08-17T12:22:04.416Z,22.20
2022-08-17T12:26:16.604Z,22.30
2022-08-17T12:30:20.098Z,22.50
2022-08-17T12:34:25.570Z,22.40
2022-08-17T12:38:32.945Z,22.20
2022-08-17T12:42:37.391Z,22.20
2022-08-17T12:46:55.867Z,22.30
2022-08-17T12:51:07.600Z,22.50
2022-08-17T12:55:21.109Z,22.20
2022-08-17T12:59:30.399Z,22.50
2022-08-17T13:03:37.793Z,22.50
2022-08-17T13:07:42.558Z,22.50
2022-08-17T13:11:51.905Z,22.60
2022-08-17T13:15:56.987Z,22.50
2022-08-17T13:19:59.205Z,22.40
2022-08-17T13:24:01.069Z,22.20
2022-08-17T13:28:02.842Z,22.20
2022-08-17T13:32:05.144Z,22.20
2022-08-17T13:36:28.204Z,22.10
2022-08-17T13:40:35.564Z,22.20
2022-08-17T13:44:39.206Z,22.20
2022-08-17T13:48:40.915Z,22.50
2022-08-17T13:52:45.865Z,22.70
2022-08-17T13:56:54.448Z,23.00
2022-08-17T14:00:56.324Z,22.80
2022-08-17T14:04:58.624Z,23.30
2022-08-17T14:09:04.199Z,23.50
2022-08-17T14:13:06.557Z,23.60
2022-08-17T14:17:08.476Z,24.00
2022-08-17T14:21:10.270Z,24.00
2022-08-17T14:25:13.982Z,24.00
2022-08-17T14:29:15.788Z,23.70
2022-08-17T14:33:24.810Z,23.80
2022-08-17T14:37:30.438Z,23.80
2022-08-17T14:41:32.155Z,23.90
2022-08-17T14:45:33.767Z,23.90
2022-08-17T14:49:35.434Z,23.80
2022-08-17T14:53:40.073Z,23.90
2022-08-17T14:57:42.182Z,24.00
2022-08-17T15:01:47.701Z,23.70
2022-08-17T15:05:49.621Z,23.60
2022-08-17T15:09:51.986Z,23.80
2022-08-17T15:13:53.638Z,24.00
2022-08-17T15:17:55.437Z,24.10
2022-08-17T15:21:57.244Z,24.10
2022-08-17T15:25:59.302Z,23.90
2022-08-17T15:30:01.644Z,23.90
2022-08-17T15:34:05.225Z,24.20
2022-08-17T15:38:11.951Z,24.10
2022-08-17T15:42:14.865Z,24.30
2022-08-17T15:46:20.768Z,24.10
2022-08-17T15:50:22.684Z,24.10
2022-08-17T15:54:24.579Z,24.40
2022-08-17T15:58:34.020Z,24.50
2022-08-17T16:03:45.181Z,24.50
2022-08-17T16:07:28.708Z,24.70
2022-08-17T16:11:30.448Z,24.40
2022-08-17T16:15:32.244Z,24.70
2022-08-17T16:19:53.995Z,24.70
2022-08-17T16:23:58.326Z,24.80
2022-08-17T16:28:00.482Z,24.90
2022-08-17T16:32:10.116Z,25.50
2022-08-17T16:36:18.738Z,25.20
2022-08-17T16:40:21.357Z,25.10
2022-08-17T16:49:41.918Z,25.20
2022-08-17T16:53:44.435Z,25.00
2022-08-17T16:57:50.893Z,25.40
2022-08-17T17:01:52.844Z,25.00
2022-08-17T17:06:44.580Z,24.80
2022-08-17T17:10:48.782Z,24.90
2022-08-17T17:14:52.209Z,24.70
2022-08-17T17:18:58.209Z,24.40
2022-08-17T17:23:11.306Z,24.50
2022-08-17T17:27:27.761Z,24.30
2022-08-17T17:31:33.776Z,24.20
2022-08-17T17:35:54.417Z,24.10
2022-08-17T17:39:59.366Z,24.30
2022-08-17T17:44:06.916Z,23.90
2022-08-17T17:48:09.264Z,23.90
2022-08-17T17:52:20.156Z,23.80
2022-08-17T17:56:44.146Z,23.90
2022-08-17T18:01:10.181Z,23.70
2022-08-17T18:05:15.177Z,23.70
2022-08-17T18:09:23.221Z,23.60
2022-08-17T18:13:28.044Z,23.50
2022-08-17T18:17:31.212Z,23.40
2022-08-17T18:21:37.919Z,23.30
2022-08-17T18:25:43.496Z,23.20
2022-08-17T18:29:46.437Z,23.10
2022-08-17T18:33:49.339Z,23.00
2022-08-17T18:37:53.102Z,23.10
2022-08-17T18:41:59.078Z,23.00
2022-08-17T18:46:28.318Z,23.00
2022-08-17T18:50:41.351Z,23.10
2022-08-17T18:55:02.008Z,23.20
2022-08-17T18:59:06.635Z,23.10
2022-08-17T19:03:20.508Z,22.90
2022-08-17T19:07:29.539Z,22.90
2022-08-17T19:11:34.710Z,23.10
2022-08-17T19:15:46.252Z,23.00
2022-08-17T19:20:14.306Z,22.80
2022-08-17T19:24:19.513Z,22.70
2022-08-17T19:28:22.558Z,22.40
2022-08-17T19:32:26.494Z,22.30
2022-08-17T19:36:51.472Z,22.20
2022-08-17T19:41:02.383Z,22.20
2022-08-17T19:45:24.267Z,21.90
2022-08-17T19:49:41.139Z,21.90
2022-08-17T19:54:05.330Z,21.80
2022-08-17T19:58:07.736Z,21.90
2022-08-17T20:02:21.640Z,22.00
2022-08-17T20:06:24.765Z,21.90
2022-08-17T20:10:36.973Z,22.00
2022-08-17T20:14:53.552Z,21.70
2022-08-17T20:19:02.880Z,21.30
2022-08-17T20:23:15.194Z,21.50
2022-08-17T20:27:31.803Z,21.50
2022-08-17T20:31:42.932Z,21.40
2022-08-17T20:36:01.243Z,21.20
2022-08-17T20:40:08.045Z,21.20
2022-08-17T20:44:09.841Z,21.20
2022-08-17T20:52:35.499Z,21.40
2022-08-17T20:56:43.371Z,20.90
2022-08-17T21:00:50.200Z,21.20
2022-08-17T21:04:54.360Z,21.30
2022-08-17T21:09:18.990Z,21.20
2022-08-17T21:13:23.735Z,21.10
2022-08-17T21:17:31.509Z,21.00
2022-08-17T21:21:51.617Z,21.00
2022-08-17T21:25:56.285Z,21.00
2022-08-17T21:30:09.986Z,20.50
2022-08-17T21:34:14.972Z,20.40
2022-08-17T21:38:19.448Z,20.40
2022-08-17T21:42:26.713Z,20.30
2022-08-17T21:46:36.828Z,20.10
2022-08-17T21:50:41.532Z,19.90
2022-08-17T21:54:49.819Z,19.80
2022-08-17T21:59:18.190Z,19.60
2022-08-17T22:03:23.174Z,19.80
2022-08-17T22:07:35.465Z,19.70
2022-08-17T22:11:53.937Z,19.90
2022-08-17T22:16:29.067Z,19.80
2022-08-17T22:20:31.281Z,19.40
2022-08-17T22:24:33.106Z,19.30
2022-08-17T22:28:36.521Z,19.40
2022-08-17T22:32:44.826Z,19.40
2022-08-17T22:36:46.687Z,19.30
2022-08-17T22:40:53.141Z,19.50
2022-08-17T22:44:54.755Z,19.10
2022-08-17T22:48:59.287Z,19.00
2022-08-17T22:53:20.669Z,18.90
2022-08-17T22:57:42.037Z,19.10
2022-08-17T23:01:45.532Z,19.30
2022-08-17T23:05:48.956Z,19.00
2022-08-17T23:09:51.878Z,18.90
2022-08-17T23:13:56.456Z,19.00
2022-08-17T23:17:59.465Z,18.90
2022-08-17T23:22:02.421Z,18.90
2022-08-17T23:26:04.157Z,18.90
2022-08-17T23:30:06.106Z,18.60
2022-08-17T23:34:12.357Z,18.50
2022-08-17T23:38:14.267Z,18.50
2022-08-17T23:42:21.734Z,18.60
2022-08-17T23:46:24.385Z,18.80
2022-08-17T23:50:29.907Z,18.60
2022-08-17T23:54:43.773Z,18.60
2022-08-17T23:58:45.551Z,18.40
